createdAt,value
2023-02-05T00:00:39.481Z,7.78
2023-02-05T00:03:06.022Z,7.76
2023-02-05T00:05:33.230Z,7.72
2023-02-05T00:07:59.864Z,7.71
2023-02-05T00:10:26.320Z,7.71
2023-02-05T00:12:52.845Z,7.70
2023-02-05T00:15:19.417Z,7.71
2023-02-05T00:17:45.875Z,7.71
2023-02-05T00:20:12.424Z,7.72
2023-02-05T00:22:38.928Z,7.71
2023-02-05T00:25:05.909Z,7.68
2023-02-05T00:27:33.819Z,7.67
2023-02-05T00:30:00.334Z,7.65
2023-02-05T00:32:26.802Z,7.65
2023-02-05T00:34:53.276Z,7.63
2023-02-05T00:37:19.900Z,7.63
2023-02-05T00:39:46.353Z,7.60
2023-02-05T00:42:12.928Z,7.58
2023-02-05T00:44:39.418Z,7.58
2023-02-05T00:47:05.939Z,7.56
2023-02-05T00:49:32.412Z,7.55
2023-02-05T00:51:58.974Z,7.53
2023-02-05T00:54:25.458Z,7.55
2023-02-05T00:56:52.018Z,7.53
2023-02-05T00:59:18.485Z,7.52
2023-02-05T01:01:44.984Z,7.51
2023-02-05T01:04:11.486Z,7.49
2023-02-05T01:06:37.969Z,7.49
2023-02-05T01:09:04.437Z,7.49
2023-02-05T01:11:30.984Z,7.46
2023-02-05T01:13:57.449Z,7.46
2023-02-05T01:16:24.005Z,7.44
2023-02-05T01:18:50.597Z,7.44
2023-02-05T01:21:17.093Z,7.41
2023-02-05T01:23:44.104Z,7.41
2023-02-05T01:26:10.568Z,7.45
2023-02-05T01:28:37.058Z,7.46
2023-02-05T01:31:03.780Z,7.48
2023-02-05T01:33:30.334Z,7.48
2023-02-05T01:35:57.171Z,7.48
2023-02-05T01:38:23.668Z,7.45
2023-02-05T01:40:50.188Z,7.43
2023-02-05T01:43:18.204Z,7.41
2023-02-05T01:45:55.346Z,7.39
2023-02-05T01:48:27.995Z,7.38
2023-02-05T01:50:59.523Z,7.39
2023-02-05T01:53:31.600Z,7.39
2023-02-05T01:56:01.469Z,7.42
2023-02-05T01:58:32.082Z,7.38
2023-02-05T02:00:58.650Z,7.38
2023-02-05T02:03:30.445Z,7.36
2023-02-05T02:05:57.636Z,7.36
2023-02-05T02:08:24.686Z,7.39
2023-02-05T02:10:53.577Z,7.38
2023-02-05T02:13:22.159Z,7.41
2023-02-05T02:15:50.588Z,7.42
2023-02-05T02:18:28.748Z,7.43
2023-02-05T02:21:33.064Z,7.43
2023-02-05T02:24:21.549Z,7.44
2023-02-05T02:27:16.132Z,7.47
2023-02-05T02:29:54.058Z,7.50
2023-02-05T02:32:41.203Z,7.49
2023-02-05T02:35:22.604Z,7.48
2023-02-05T02:38:00.909Z,7.49
2023-02-05T02:40:36.188Z,7.49
2023-02-05T02:43:13.522Z,7.51
2023-02-05T02:45:49.656Z,7.49
2023-02-05T02:48:19.392Z,7.52
2023-02-05T02:50:49.041Z,7.52
2023-02-05T02:53:19.242Z,7.50
2023-02-05T02:55:49.143Z,7.53
2023-02-05T02:58:21.389Z,7.53
2023-02-05T03:00:49.132Z,7.53
2023-02-05T03:03:20.769Z,7.54
2023-02-05T03:05:50.202Z,7.56
2023-02-05T03:08:24.652Z,7.55
2023-02-05T03:10:59.172Z,7.56
2023-02-05T03:13:25.712Z,7.58
2023-02-05T03:15:52.295Z,7.56
2023-02-05T03:18:19.873Z,7.57
2023-02-05T03:21:12.589Z,7.56
2023-02-05T03:23:39.197Z,7.57
2023-02-05T03:26:05.710Z,7.56
2023-02-05T03:28:32.203Z,7.54
2023-02-05T03:31:16.530Z,7.55
2023-02-05T03:34:01.188Z,7.58
2023-02-05T03:36:48.791Z,7.63
2023-02-05T03:39:26.516Z,7.61
2023-02-05T03:41:59.288Z,7.65
2023-02-05T03:45:00.354Z,7.61
2023-02-05T03:47:35.046Z,7.61
2023-02-05T03:50:10.930Z,7.61
2023-02-05T03:52:43.991Z,7.63
2023-02-05T03:55:22.927Z,7.63
2023-02-05T03:58:11.453Z,7.64
2023-02-05T04:00:38.738Z,7.61
2023-02-05T04:03:05.334Z,7.58
2023-02-05T04:05:32.519Z,7.57
2023-02-05T04:07:59.202Z,7.55
2023-02-05T04:10:25.669Z,7.55
2023-02-05T04:12:52.171Z,7.52
2023-02-05T04:15:18.659Z,7.53
2023-02-05T04:17:45.112Z,7.57
2023-02-05T04:20:11.961Z,7.60
2023-02-05T04:22:38.483Z,7.57
2023-02-05T04:25:05.237Z,7.58
2023-02-05T04:27:31.714Z,7.58
2023-02-05T04:29:58.625Z,7.59
2023-02-05T04:32:25.173Z,7.57
2023-02-05T04:34:51.677Z,7.57
2023-02-05T04:37:18.270Z,7.51
2023-02-05T04:39:44.761Z,7.51
2023-02-05T04:42:11.262Z,7.51
2023-02-05T04:44:37.776Z,7.48
2023-02-05T04:47:04.339Z,7.48
2023-02-05T04:49:33.065Z,7.52
2023-02-05T04:52:00.094Z,7.54
2023-02-05T04:54:28.337Z,7.56
2023-02-05T04:56:54.806Z,7.57
2023-02-05T04:59:21.310Z,7.56
2023-02-05T05:01:47.784Z,7.56
2023-02-05T05:04:14.289Z,7.58
2023-02-05T05:06:40.764Z,7.57
2023-02-05T05:09:07.234Z,7.56
2023-02-05T05:11:34.158Z,7.57
2023-02-05T05:14:00.599Z,7.57
2023-02-05T05:16:27.306Z,7.58
2023-02-05T05:18:53.889Z,7.59
2023-02-05T05:21:20.394Z,7.61
2023-02-05T05:23:46.891Z,7.58
2023-02-05T05:26:13.512Z,7.59
2023-02-05T05:28:40.270Z,7.59
2023-02-05T05:31:13.186Z,7.58
2023-02-05T05:33:40.176Z,7.58
2023-02-05T05:36:07.474Z,7.58
2023-02-05T05:38:34.048Z,7.58
2023-02-05T05:41:19.385Z,7.58
2023-02-05T05:43:48.505Z,7.54
2023-02-05T05:46:22.006Z,7.56
2023-02-05T05:48:53.728Z,7.53
2023-02-05T05:51:20.749Z,7.55
2023-02-05T05:53:47.655Z,7.57
2023-02-05T05:56:14.618Z,7.55
2023-02-05T05:58:42.106Z,7.59
2023-02-05T06:01:09.402Z,7.55
2023-02-05T06:03:36.268Z,7.56
2023-02-05T06:06:08.193Z,7.55
2023-02-05T06:08:35.749Z,7.55
2023-02-05T06:11:02.258Z,7.52
2023-02-05T06:13:28.770Z,7.49
2023-02-05T06:15:56.192Z,7.53
2023-02-05T06:18:23.988Z,7.49
2023-02-05T06:20:50.860Z,7.50
2023-02-05T06:23:17.647Z,7.51
2023-02-05T06:25:46.994Z,7.53
2023-02-05T06:28:14.000Z,7.58
2023-02-05T06:30:40.512Z,7.53
2023-02-05T06:33:07.078Z,7.55
2023-02-05T06:35:33.905Z,7.57
2023-02-05T06:38:00.578Z,7.57
2023-02-05T06:40:28.183Z,7.61
2023-02-05T06:42:55.343Z,7.59
2023-02-05T06:45:22.305Z,7.62
2023-02-05T06:47:49.040Z,7.59
2023-02-05T06:50:15.966Z,7.57
2023-02-05T06:52:42.629Z,7.58
2023-02-05T06:55:09.178Z,7.54
2023-02-05T06:57:35.692Z,7.53
2023-02-05T07:00:02.173Z,7.53
2023-02-05T07:02:29.230Z,7.53
2023-02-05T07:04:55.777Z,7.53
2023-02-05T07:07:22.467Z,7.52
2023-02-05T07:09:51.240Z,7.49
2023-02-05T07:12:17.828Z,7.52
2023-02-05T07:14:44.492Z,7.55
2023-02-05T07:17:10.992Z,7.48
2023-02-05T07:19:38.129Z,7.44
2023-02-05T07:22:05.266Z,7.39
2023-02-05T07:24:32.284Z,7.39
2023-02-05T07:26:58.764Z,7.43
2023-02-05T07:29:25.360Z,7.39
2023-02-05T07:31:52.506Z,7.40
2023-02-05T07:34:19.454Z,7.42
2023-02-05T07:36:45.932Z,7.45
2023-02-05T07:39:12.441Z,7.45
2023-02-05T07:41:38.988Z,7.43
2023-02-05T07:44:05.951Z,7.49
2023-02-05T07:46:34.946Z,7.49
2023-02-05T07:49:01.659Z,7.52
2023-02-05T07:51:28.319Z,7.55
2023-02-05T07:53:55.565Z,7.59
2023-02-05T07:56:22.461Z,7.56
2023-02-05T07:58:49.286Z,7.53
2023-02-05T08:01:15.852Z,7.47
2023-02-05T08:03:42.455Z,7.37
2023-02-05T08:06:14.020Z,7.36
2023-02-05T08:08:40.567Z,7.28
2023-02-05T08:11:07.862Z,7.24
2023-02-05T08:13:34.469Z,7.27
2023-02-05T08:16:05.965Z,7.24
2023-02-05T08:18:32.594Z,7.13
2023-02-05T08:20:59.368Z,6.98
2023-02-05T08:23:26.177Z,6.87
2023-02-05T08:25:57.104Z,6.75
2023-02-05T08:28:28.022Z,6.71
2023-02-05T08:30:56.598Z,6.65
2023-02-05T08:33:24.091Z,6.56
2023-02-05T08:35:50.795Z,6.57
2023-02-05T08:38:17.674Z,6.56
2023-02-05T08:40:44.188Z,6.52
2023-02-05T08:43:10.864Z,6.47
2023-02-05T08:45:37.955Z,6.48
2023-02-05T08:48:04.676Z,6.48
2023-02-05T08:50:31.505Z,6.44
2023-02-05T08:52:58.016Z,6.42
2023-02-05T08:55:24.704Z,6.43
2023-02-05T08:57:51.505Z,6.48
2023-02-05T09:00:18.361Z,6.49
2023-02-05T09:02:45.428Z,6.43
2023-02-05T09:05:11.993Z,6.43
2023-02-05T09:07:39.788Z,6.46
2023-02-05T09:10:09.060Z,6.50
2023-02-05T09:12:35.669Z,6.49
2023-02-05T09:15:02.200Z,6.44
2023-02-05T09:17:28.807Z,6.45
2023-02-05T09:19:55.480Z,6.43
2023-02-05T09:22:21.995Z,6.37
2023-02-05T09:24:48.485Z,6.41
2023-02-05T09:27:15.096Z,6.40
2023-02-05T09:29:41.913Z,6.43
2023-02-05T09:32:08.515Z,6.44
2023-02-05T09:34:35.015Z,6.47
2023-02-05T09:37:01.568Z,6.45
2023-02-05T09:40:12.023Z,6.46
2023-02-05T09:42:39.986Z,6.43
2023-02-05T09:45:16.717Z,6.39
2023-02-05T09:47:59.438Z,6.44
2023-02-05T09:50:29.900Z,6.42
2023-02-05T09:53:11.874Z,6.45
2023-02-05T09:55:42.560Z,6.57
2023-02-05T09:58:16.360Z,6.55
2023-02-05T10:00:49.987Z,6.62
2023-02-05T10:03:29.863Z,6.58
2023-02-05T10:06:12.882Z,6.62
2023-02-05T10:08:58.452Z,6.62
2023-02-05T10:11:48.662Z,6.54
2023-02-05T10:14:27.749Z,6.55
2023-02-05T10:16:54.153Z,6.49
2023-02-05T10:19:43.578Z,6.52
2023-02-05T10:22:21.157Z,6.57
2023-02-05T10:24:54.481Z,6.60
2023-02-05T10:27:23.186Z,6.65
2023-02-05T10:30:14.318Z,6.68
2023-02-05T10:33:00.434Z,6.70
2023-02-05T10:35:51.590Z,6.75
2023-02-05T10:38:25.669Z,6.68
2023-02-05T10:41:00.377Z,6.70
2023-02-05T10:43:34.426Z,6.76
2023-02-05T10:46:01.933Z,6.78
2023-02-05T10:48:45.397Z,6.72
2023-02-05T10:51:16.670Z,6.77
2023-02-05T10:53:43.845Z,6.78
2023-02-05T10:56:18.635Z,6.78
2023-02-05T10:58:55.482Z,6.76
2023-02-05T11:01:38.665Z,6.78
2023-02-05T11:04:11.236Z,6.79
2023-02-05T11:06:41.977Z,6.73
2023-02-05T11:09:23.717Z,6.77
2023-02-05T11:11:56.014Z,6.75
2023-02-05T11:14:31.028Z,6.74
2023-02-05T11:16:58.209Z,6.73
2023-02-05T11:19:28.926Z,6.77
2023-02-05T11:21:58.089Z,6.82
2023-02-05T11:24:36.193Z,6.73
2023-02-05T11:27:27.849Z,6.72
2023-02-05T11:29:56.964Z,6.77
2023-02-05T11:32:35.143Z,6.78
2023-02-05T11:35:23.455Z,6.84
2023-02-05T11:38:01.437Z,6.85
2023-02-05T11:40:31.467Z,6.82
2023-02-05T11:43:02.659Z,6.81
2023-02-05T11:45:31.039Z,6.83
2023-02-05T11:48:01.024Z,6.90
2023-02-05T11:50:30.384Z,6.87
2023-02-05T11:53:08.186Z,6.95
2023-02-05T11:55:36.237Z,6.99
2023-02-05T11:58:06.305Z,6.96
2023-02-05T12:00:33.646Z,7.01
2023-02-05T12:03:07.661Z,7.01
2023-02-05T12:05:45.874Z,7.02
2023-02-05T12:08:34.984Z,7.02
2023-02-05T12:11:12.516Z,7.02
2023-02-05T12:13:54.094Z,6.98
2023-02-05T12:16:32.813Z,6.94
2023-02-05T12:19:02.527Z,6.97
2023-02-05T12:21:50.957Z,6.95
2023-02-05T12:24:23.505Z,6.92
2023-02-05T12:26:57.924Z,6.99
2023-02-05T12:30:03.951Z,6.98
2023-02-05T12:32:47.362Z,7.02
2023-02-05T12:35:28.935Z,6.99
2023-02-05T12:38:27.300Z,6.97
2023-02-05T12:41:26.676Z,6.99
2023-02-05T12:44:02.161Z,6.99
2023-02-05T12:47:01.533Z,7.02
2023-02-05T12:49:51.457Z,6.93
2023-02-05T12:52:35.375Z,6.95
2023-02-05T12:55:12.375Z,6.96
2023-02-05T12:57:44.377Z,6.97
2023-02-05T13:00:19.686Z,6.97
2023-02-05T13:03:20.215Z,6.98
2023-02-05T13:06:03.944Z,6.99
2023-02-05T13:08:42.722Z,6.98
2023-02-05T13:11:18.304Z,6.99
2023-02-05T13:14:03.741Z,7.01
2023-02-05T13:16:38.056Z,7.06
2023-02-05T13:19:22.295Z,7.11
2023-02-05T13:22:08.870Z,7.09
2023-02-05T13:25:04.511Z,7.14
2023-02-05T13:27:59.058Z,7.20
2023-02-05T13:30:36.740Z,7.19
2023-02-05T13:33:06.500Z,7.23
2023-02-05T13:35:43.751Z,7.22
2023-02-05T13:38:25.484Z,7.26
2023-02-05T13:41:03.020Z,7.29
2023-02-05T13:43:54.461Z,7.24
2023-02-05T13:46:49.062Z,7.24
2023-02-05T13:49:30.266Z,7.29
2023-02-05T13:52:12.117Z,7.30
2023-02-05T13:54:38.585Z,7.31
2023-02-05T13:57:37.666Z,7.35
2023-02-05T14:00:08.910Z,7.37
2023-02-05T14:02:45.793Z,7.34
2023-02-05T14:05:14.008Z,7.30
2023-02-05T14:07:47.689Z,7.40
2023-02-05T14:10:30.267Z,7.40
2023-02-05T14:13:22.884Z,7.33
2023-02-05T14:15:49.987Z,7.27
2023-02-05T14:18:41.821Z,7.31
2023-02-05T14:21:46.711Z,7.32
2023-02-05T14:24:49.585Z,7.34
2023-02-05T14:27:38.661Z,7.39
2023-02-05T14:30:30.449Z,7.37
2023-02-05T14:33:02.680Z,7.42
2023-02-05T14:35:40.301Z,7.37
2023-02-05T14:38:28.979Z,7.36
2023-02-05T14:41:05.822Z,7.33
2023-02-05T14:43:36.046Z,7.31
2023-02-05T14:46:07.301Z,7.28
2023-02-05T14:48:46.809Z,7.33
2023-02-05T14:51:54.657Z,7.34
2023-02-05T14:54:24.103Z,7.36
2023-02-05T14:56:54.112Z,7.40
2023-02-05T14:59:32.224Z,7.42
2023-02-05T15:02:00.060Z,7.45
2023-02-05T15:04:40.275Z,7.47
2023-02-05T15:07:18.469Z,7.49
2023-02-05T15:09:51.978Z,7.49
2023-02-05T15:12:42.718Z,7.47
2023-02-05T15:15:28.753Z,7.46
2023-02-05T15:18:00.372Z,7.46
2023-02-05T15:20:32.542Z,7.42
2023-02-05T15:23:18.404Z,7.39
2023-02-05T15:25:56.120Z,7.40
2023-02-05T15:28:36.710Z,7.40
2023-02-05T15:31:16.468Z,7.38
2023-02-05T15:34:09.673Z,7.38
2023-02-05T15:36:45.871Z,7.43
2023-02-05T15:39:34.508Z,7.45
2023-02-05T15:42:04.103Z,7.46
2023-02-05T15:44:33.987Z,7.47
2023-02-05T15:47:03.757Z,7.49
2023-02-05T15:49:36.100Z,7.48
2023-02-05T15:52:03.541Z,7.49
2023-02-05T15:54:33.694Z,7.51
2023-02-05T15:57:00.374Z,7.51
2023-02-05T15:59:29.337Z,7.51
2023-02-05T16:02:18.081Z,7.51
2023-02-05T16:04:45.434Z,7.52
2023-02-05T16:07:24.408Z,7.52
2023-02-05T16:09:54.445Z,7.53
2023-02-05T16:12:21.379Z,7.53
2023-02-05T16:15:07.701Z,7.51
2023-02-05T16:17:42.309Z,7.51
2023-02-05T16:20:21.432Z,7.50
2023-02-05T16:22:56.921Z,7.51
2023-02-05T16:25:52.156Z,7.44
2023-02-05T16:28:24.649Z,7.40
2023-02-05T16:30:55.566Z,7.35
2023-02-05T16:33:32.363Z,7.41
2023-02-05T16:36:02.081Z,7.41
2023-02-05T16:38:29.262Z,7.36
2023-02-05T16:40:59.019Z,7.37
2023-02-05T16:43:25.462Z,7.34
2023-02-05T16:46:15.703Z,7.34
2023-02-05T16:48:45.374Z,7.28
2023-02-05T16:51:52.284Z,7.28
2023-02-05T16:54:18.852Z,7.25
2023-02-05T16:56:58.849Z,7.20
2023-02-05T16:59:30.665Z,7.17
2023-02-05T17:01:59.498Z,7.19
2023-02-05T17:04:34.938Z,7.21
2023-02-05T17:07:03.578Z,7.17
2023-02-05T17:09:39.096Z,7.16
2023-02-05T17:12:33.591Z,7.15
2023-02-05T17:15:02.965Z,7.18
2023-02-05T17:17:31.427Z,7.15
2023-02-05T17:20:17.982Z,7.13
2023-02-05T17:23:05.503Z,7.16
2023-02-05T17:26:01.490Z,7.11
2023-02-05T17:28:29.889Z,7.09
2023-02-05T17:31:00.265Z,7.06
2023-02-05T17:33:28.848Z,7.09
2023-02-05T17:35:55.718Z,7.08
2023-02-05T17:38:23.573Z,7.08
2023-02-05T17:40:50.424Z,7.08
2023-02-05T17:43:16.972Z,7.06
2023-02-05T17:45:44.480Z,7.05
2023-02-05T17:48:11.625Z,7.06
2023-02-05T17:50:38.449Z,7.07
2023-02-05T17:53:05.029Z,7.08
2023-02-05T17:55:32.130Z,7.04
2023-02-05T17:57:59.214Z,7.02
2023-02-05T18:00:28.263Z,6.97
2023-02-05T18:02:55.015Z,6.93
2023-02-05T18:05:22.974Z,6.90
2023-02-05T18:07:53.099Z,6.87
2023-02-05T18:10:23.990Z,6.87
2023-02-05T18:12:51.352Z,6.86
2023-02-05T18:15:17.934Z,6.87
2023-02-05T18:17:44.647Z,6.83
2023-02-05T18:20:13.014Z,6.83
2023-02-05T18:22:39.738Z,6.81
2023-02-05T18:25:06.829Z,6.80
2023-02-05T18:27:33.875Z,6.79
2023-02-05T18:30:00.404Z,6.72
2023-02-05T18:32:27.061Z,6.74
2023-02-05T18:34:54.020Z,6.76
2023-02-05T18:37:20.539Z,6.72
2023-02-05T18:39:47.976Z,6.72
2023-02-05T18:42:14.696Z,6.69
2023-02-05T18:44:41.334Z,6.65
2023-02-05T18:47:08.486Z,6.65
2023-02-05T18:49:35.155Z,6.63
2023-02-05T18:52:05.710Z,6.61
2023-02-05T18:54:32.177Z,6.62
2023-02-05T18:56:58.830Z,6.61
2023-02-05T18:59:25.906Z,6.62
2023-02-05T19:01:53.046Z,6.59
2023-02-05T19:04:20.811Z,6.54
2023-02-05T19:06:52.388Z,6.51
2023-02-05T19:09:24.927Z,6.51
2023-02-05T19:11:52.474Z,6.50
2023-02-05T19:14:20.748Z,6.48
2023-02-05T19:16:48.580Z,6.43
2023-02-05T19:19:20.071Z,6.43
2023-02-05T19:21:49.046Z,6.39
2023-02-05T19:24:17.334Z,6.41
2023-02-05T19:26:44.261Z,6.37
2023-02-05T19:29:16.551Z,6.37
2023-02-05T19:31:43.981Z,6.41
2023-02-05T19:34:11.468Z,6.36
2023-02-05T19:36:38.145Z,6.35
2023-02-05T19:39:06.892Z,6.36
2023-02-05T19:41:35.100Z,6.35
2023-02-05T19:44:04.642Z,6.33
2023-02-05T19:46:42.128Z,6.35
2023-02-05T19:49:13.761Z,6.32
2023-02-05T19:51:40.395Z,6.32
2023-02-05T19:54:08.075Z,6.32
2023-02-05T19:56:37.908Z,6.28
2023-02-05T19:59:06.369Z,6.33
2023-02-05T20:01:36.756Z,6.27
2023-02-05T20:04:10.731Z,6.20
2023-02-05T20:06:37.905Z,6.20
2023-02-05T20:09:10.344Z,6.16
2023-02-05T20:11:41.684Z,6.08
2023-02-05T20:14:09.266Z,6.04
2023-02-05T20:16:36.253Z,6.02
2023-02-05T20:19:03.068Z,6.03
2023-02-05T20:21:30.086Z,6.02
2023-02-05T20:23:56.881Z,6.01
2023-02-05T20:26:24.550Z,6.02
2023-02-05T20:29:12.288Z,5.97
2023-02-05T20:31:44.489Z,5.96
2023-02-05T20:34:17.979Z,5.94
2023-02-05T20:36:46.876Z,5.92
2023-02-05T20:39:13.492Z,5.93
2023-02-05T20:41:40.190Z,5.92
2023-02-05T20:44:06.660Z,5.86
2023-02-05T20:46:33.231Z,5.87
2023-02-05T20:49:00.577Z,5.77
2023-02-05T20:51:27.710Z,5.76
2023-02-05T20:53:58.623Z,5.73
2023-02-05T20:56:27.236Z,5.64
2023-02-05T20:58:54.634Z,5.63
2023-02-05T21:01:24.157Z,5.63
2023-02-05T21:03:57.778Z,5.62
2023-02-05T21:06:25.230Z,5.65
2023-02-05T21:08:52.974Z,5.64
2023-02-05T21:11:20.832Z,5.65
2023-02-05T21:13:49.361Z,5.62
2023-02-05T21:16:17.529Z,5.64
2023-02-05T21:18:45.626Z,5.61
2023-02-05T21:21:15.141Z,5.62
2023-02-05T21:23:44.173Z,5.61
2023-02-05T21:26:22.501Z,5.59
2023-02-05T21:28:52.328Z,5.56
2023-02-05T21:31:18.916Z,5.57
2023-02-05T21:33:45.672Z,5.53
2023-02-05T21:36:12.580Z,5.47
2023-02-05T21:38:41.428Z,5.44
2023-02-05T21:41:18.479Z,5.43
2023-02-05T21:43:53.545Z,5.39
2023-02-05T21:46:24.187Z,5.33
2023-02-05T21:48:53.031Z,5.33
2023-02-05T21:51:20.837Z,5.29
2023-02-05T21:53:47.960Z,5.32
2023-02-05T21:56:16.610Z,5.27
2023-02-05T21:58:43.339Z,5.22
2023-02-05T22:01:25.294Z,5.20
2023-02-05T22:03:57.422Z,5.20
2023-02-05T22:06:25.648Z,5.16
2023-02-05T22:08:52.678Z,5.14
2023-02-05T22:11:21.207Z,5.10
2023-02-05T22:13:49.883Z,5.09
2023-02-05T22:16:21.426Z,5.09
2023-02-05T22:18:48.640Z,5.13
2023-02-05T22:21:18.546Z,5.10
2023-02-05T22:23:49.190Z,5.10
2023-02-05T22:26:21.064Z,5.11
2023-02-05T22:28:48.075Z,5.12
2023-02-05T22:31:17.200Z,5.05
2023-02-05T22:33:45.606Z,5.10
2023-02-05T22:36:14.909Z,5.05
2023-02-05T22:38:42.894Z,5.06
2023-02-05T22:41:11.677Z,5.01
2023-02-05T22:43:38.515Z,4.96
2023-02-05T22:46:11.048Z,4.95
2023-02-05T22:48:39.576Z,4.95
2023-02-05T22:51:09.033Z,4.92
2023-02-05T22:53:35.841Z,4.88
2023-02-05T22:56:04.249Z,4.81
2023-02-05T22:58:31.334Z,4.81
2023-02-05T23:00:58.619Z,4.77
2023-02-05T23:03:25.795Z,4.72
2023-02-05T23:05:52.989Z,4.72
2023-02-05T23:08:21.813Z,4.69
2023-02-05T23:10:49.013Z,4.74
2023-02-05T23:13:18.073Z,4.69
2023-02-05T23:15:44.521Z,4.66
2023-02-05T23:18:11.042Z,4.65
2023-02-05T23:20:40.971Z,4.60
2023-02-05T23:23:07.429Z,4.62
2023-02-05T23:25:36.515Z,4.58
2023-02-05T23:28:03.324Z,4.59
2023-02-05T23:30:29.981Z,4.60
2023-02-05T23:32:56.535Z,4.61
2023-02-05T23:35:22.996Z,4.57
2023-02-05T23:37:49.489Z,4.52
2023-02-05T23:40:16.030Z,4.53
2023-02-05T23:42:42.475Z,4.52
2023-02-05T23:45:09.196Z,4.57
2023-02-05T23:47:35.719Z,4.55
2023-02-05T23:50:02.162Z,4.53
2023-02-05T23:52:28.625Z,4.47
2023-02-05T23:54:55.073Z,4.47
2023-02-05T23:57:21.531Z,4.46
2023-02-05T23:59:50.275Z,4.39
